Time;durP1;ratioP1;P1;durP2;ratioP2;P2;SDS_P1;SDS_P2;PMS_P1;PMS_P2;Temp;Humidity;BMP_temperature;BMP_pressure;BME280_temperature;BME280_humidity;BME280_pressure;Samples;Min_cycle;Max_cycle;Signal;HPM_P1;HPM_P2
2022/06/12 00:00:22;;;;;;;4.40;4.00;;;15.40;99.90;;;;;;5093486;28;20461;-70
2022/06/12 00:02:49;;;;;;;4.03;3.73;;;15.40;99.90;;;;;;5094176;28;20461;-71
2022/06/12 00:05:19;;;;;;;4.47;4.07;;;15.40;99.90;;;;;;5093969;28;20967;-71
2022/06/12 00:07:46;;;;;;;3.93;3.63;;;15.40;99.90;;;;;;5109562;22;21027;-92
2022/06/12 00:10:22;;;;;;;3.50;3.20;;;15.30;99.90;;;;;;5076103;28;20454;-92
2022/06/12 00:12:49;;;;;;;5.10;4.20;;;15.30;99.90;;;;;;5069036;28;20454;-92
2022/06/12 00:15:23;;;;;;;4.30;3.87;;;15.30;99.90;;;;;;5077167;28;20466;-93
2022/06/12 00:17:50;;;;;;;3.80;3.50;;;15.30;99.90;;;;;;5059413;28;20485;-92
2022/06/12 00:20:19;;;;;;;5.23;4.03;;;15.20;99.90;;;;;;5077163;28;20464;-93
2022/06/12 00:22:47;;;;;;;4.90;4.40;;;15.20;99.90;;;;;;5077269;28;20465;-93
2022/06/12 00:25:14;;;;;;;4.20;3.70;;;15.10;99.90;;;;;;5076940;28;20834;-92
2022/06/12 00:27:42;;;;;;;4.10;3.70;;;15.10;99.90;;;;;;5076996;28;20482;-93
2022/06/12 00:30:15;;;;;;;4.40;3.97;;;15.10;99.90;;;;;;5076739;28;20466;-93
2022/06/12 00:32:49;;;;;;;4.17;3.77;;;15.10;99.90;;;;;;5077050;28;20475;-93
2022/06/12 00:35:20;;;;;;;4.40;4.00;;;15.00;99.90;;;;;;5076924;28;20488;-93
2022/06/12 00:37:47;;;;;;;6.70;4.30;;;15.00;99.90;;;;;;5076686;28;20531;-92
2022/06/12 00:40:15;;;;;;;4.10;3.70;;;15.00;99.90;;;;;;5077236;28;20501;-93
2022/06/12 00:42:45;;;;;;;5.47;3.90;;;15.00;99.90;;;;;;5077345;28;20463;-93
2022/06/12 00:45:38;;;;;;;4.40;4.00;;;15.00;99.90;;;;;;5077200;28;20837;-93
2022/06/12 00:48:09;;;;;;;4.93;4.10;;;15.00;99.90;;;;;;5077001;28;20474;-92
2022/06/12 00:51:01;;;;;;;4.73;4.23;;;15.00;99.90;;;;;;5077188;28;20465;-91
2022/06/12 00:53:33;;;;;;;4.80;4.10;;;14.90;99.90;;;;;;5076373;28;20458;-93
2022/06/12 00:56:09;;;;;;;4.50;4.10;;;14.90;99.90;;;;;;5076795;28;20458;-93
2022/06/12 00:58:42;;;;;;;3.97;3.60;;;14.90;99.90;;;;;;5076190;28;20478;-93
2022/06/12 01:01:12;;;;;;;5.10;4.03;;;14.90;99.90;;;;;;5076844;28;20481;-93
2022/06/12 01:06:37;;;;;;;4.47;3.90;;;14.80;99.90;;;;;;5076471;28;20489;-93
2022/06/12 01:09:09;;;;;;;4.50;4.10;;;14.80;99.90;;;;;;5076120;28;20875;-93
2022/06/12 01:11:39;;;;;;;4.93;4.23;;;14.80;99.90;;;;;;5076166;28;20457;-93
2022/06/12 01:14:09;;;;;;;4.10;3.80;;;14.70;99.90;;;;;;5076124;28;20447;-93
2022/06/12 01:19:37;;;;;;;4.27;3.80;;;14.70;99.90;;;;;;5076269;28;20802;-94
2022/06/12 01:22:40;;;;;;;4.30;3.90;;;14.70;99.90;;;;;;5077022;28;20537;-94
2022/06/12 01:25:30;;;;;;;4.40;3.60;;;14.60;99.90;;;;;;5069627;28;20529;-94
2022/06/12 01:28:44;;;;;;;4.60;4.20;;;14.60;99.90;;;;;;5099879;28;20474;-94
2022/06/12 01:31:39;;;;;;;4.17;3.77;;;14.60;99.90;;;;;;5038374;28;20445;-95
2022/06/12 01:34:20;;;;;;;5.37;4.77;;;14.60;99.90;;;;;;5096854;28;20529;-94
2022/06/12 01:36:56;;;;;;;5.00;4.53;;;14.60;99.90;;;;;;5090077;28;20569;-92
2022/06/12 01:39:30;;;;;;;4.97;4.53;;;14.50;99.90;;;;;;5077609;28;20462;-92
2022/06/12 01:42:13;;;;;;;4.53;4.07;;;14.50;99.90;;;;;;5077129;28;20449;-93
2022/06/12 01:44:48;;;;;;;4.67;4.30;;;14.50;99.90;;;;;;5079504;28;20459;-93
2022/06/12 01:47:40;;;;;;;4.23;3.83;;;14.50;99.90;;;;;;5076980;28;20485;-94
2022/06/12 01:50:16;;;;;;;5.27;4.77;;;14.40;99.90;;;;;;5076999;28;20462;-93
2022/06/12 01:53:11;;;;;;;4.70;4.30;;;14.40;99.90;;;;;;5077806;28;20504;-93
2022/06/12 01:58:56;;;;;;;4.50;3.67;;;14.40;99.90;;;;;;5076487;28;20502;-92
2022/06/12 02:01:44;;;;;;;5.23;3.90;;;14.40;99.90;;;;;;5076924;28;20462;-92
2022/06/12 02:04:19;;;;;;;5.03;4.50;;;14.40;99.90;;;;;;5077472;28;20477;-92
2022/06/12 02:06:55;;;;;;;4.80;4.40;;;14.40;99.90;;;;;;5076387;28;20486;-92
2022/06/12 02:09:28;;;;;;;4.80;4.00;;;14.30;99.90;;;;;;5075451;28;20469;-92
2022/06/12 02:15:13;;;;;;;4.33;4.00;;;14.30;99.90;;;;;;5080257;28;20445;-92
2022/06/12 02:17:48;;;;;;;6.10;4.30;;;14.20;99.90;;;;;;5086795;28;20482;-94
2022/06/12 02:20:19;;;;;;;4.60;4.00;;;14.20;99.90;;;;;;5099168;28;20501;-94
2022/06/12 02:22:50;;;;;;;5.00;4.50;;;14.20;99.90;;;;;;5088927;28;20450;-92
2022/06/12 02:25:21;;;;;;;4.90;4.37;;;14.10;99.90;;;;;;5077075;28;20473;-93
2022/06/12 02:27:53;;;;;;;4.40;3.87;;;14.10;99.90;;;;;;5076741;28;20475;-93
2022/06/12 02:30:24;;;;;;;4.67;3.33;;;14.10;99.90;;;;;;5076839;28;20451;-93
2022/06/12 02:32:56;;;;;;;5.17;3.93;;;14.10;99.90;;;;;;5076113;28;20462;-92
2022/06/12 02:35:51;;;;;;;4.53;4.13;;;14.00;99.90;;;;;;5075009;28;20465;-92
2022/06/12 02:38:24;;;;;;;4.67;4.27;;;14.00;99.90;;;;;;5072434;28;20478;-92
2022/06/12 02:40:58;;;;;;;4.77;4.23;;;14.00;99.90;;;;;;5074940;28;20461;-93
2022/06/12 02:43:30;;;;;;;4.83;4.43;;;14.00;99.90;;;;;;5074613;28;20446;-93
2022/06/12 02:46:01;;;;;;;4.87;4.30;;;14.00;99.90;;;;;;5074631;28;20462;-93
2022/06/12 02:48:30;;;;;;;4.37;3.97;;;14.00;99.90;;;;;;5074174;28;20459;-93
2022/06/12 02:51:14;;;;;;;4.53;4.13;;;14.00;99.90;;;;;;5074925;28;20458;-92
2022/06/12 02:53:58;;;;;;;4.40;4.00;;;13.90;99.90;;;;;;5074293;28;20450;-92
2022/06/12 02:56:41;;;;;;;4.40;4.00;;;13.90;99.90;;;;;;5074480;28;20543;-92
2022/06/12 02:59:32;;;;;;;4.63;4.20;;;13.90;99.90;;;;;;5073894;28;20541;-92
2022/06/12 03:02:33;;;;;;;4.00;3.60;;;13.90;99.90;;;;;;5074273;28;20458;-92
2022/06/12 03:05:05;;;;;;;4.47;4.07;;;13.80;99.90;;;;;;5074556;28;20472;-92
2022/06/12 03:07:34;;;;;;;5.10;4.60;;;13.80;99.90;;;;;;5074482;28;20582;-93
2022/06/12 03:10:25;;;;;;;4.30;3.90;;;13.80;99.90;;;;;;5074465;28;20843;-92
2022/06/12 03:12:52;;;;;;;4.83;3.90;;;13.70;99.90;;;;;;5074004;28;20482;-92
2022/06/12 03:15:34;;;;;;;4.47;4.10;;;13.70;99.90;;;;;;5073878;28;20463;-93
2022/06/12 03:18:03;;;;;;;4.20;3.90;;;13.70;99.90;;;;;;5073846;28;20482;-92
2022/06/12 03:20:39;;;;;;;7.10;4.03;;;13.70;99.90;;;;;;5077999;28;20458;-93
2022/06/12 03:23:38;;;;;;;5.17;4.67;;;13.70;99.90;;;;;;5080925;28;20462;-92
2022/06/12 03:26:30;;;;;;;6.77;4.20;;;13.60;99.90;;;;;;5080297;28;20959;-93
2022/06/12 03:29:04;;;;;;;5.00;4.47;;;13.60;99.90;;;;;;5081161;28;20447;-92
2022/06/12 03:31:38;;;;;;;4.90;4.27;;;13.70;99.90;;;;;;5080887;28;20474;-92
2022/06/12 03:34:13;;;;;;;5.20;4.70;;;13.70;99.90;;;;;;5081153;28;20809;-93
2022/06/12 03:36:45;;;;;;;4.83;4.43;;;13.70;99.90;;;;;;5081205;28;20481;-93
2022/06/12 03:39:19;;;;;;;4.43;4.00;;;13.70;99.90;;;;;;5080921;28;20519;-92
2022/06/12 03:41:51;;;;;;;4.30;3.80;;;13.60;99.90;;;;;;5080638;28;20460;-93
2022/06/12 03:44:26;;;;;;;5.10;4.70;;;13.60;99.90;;;;;;5080798;28;21054;-92
2022/06/12 03:47:00;;;;;;;4.90;4.50;;;13.60;99.90;;;;;;5081002;28;20493;-93
2022/06/12 03:49:32;;;;;;;4.60;4.20;;;13.60;99.90;;;;;;5080936;28;20454;-93
2022/06/12 03:52:21;;;;;;;4.40;4.00;;;13.60;99.90;;;;;;5080752;28;20458;-94
2022/06/12 03:54:56;;;;;;;8.73;4.47;;;13.60;99.90;;;;;;5081189;28;20458;-92
2022/06/12 04:00:21;;;;;;;5.23;4.70;;;13.60;99.90;;;;;;5080915;28;20425;-92
2022/06/12 04:02:52;;;;;;;4.20;3.90;;;13.70;99.90;;;;;;5081297;28;20480;-92
2022/06/12 04:05:23;;;;;;;4.40;4.00;;;13.70;99.90;;;;;;5081370;28;20466;-92
2022/06/12 04:07:54;;;;;;;4.93;4.53;;;13.60;99.90;;;;;;5095424;28;20538;-93
2022/06/12 04:10:30;;;;;;;4.63;4.03;;;13.70;99.90;;;;;;5087644;28;20474;-93
2022/06/12 04:12:58;;;;;;;4.53;4.13;;;13.70;99.90;;;;;;5081660;28;20481;-92
2022/06/12 04:15:32;;;;;;;5.00;4.50;;;13.70;99.90;;;;;;5083560;28;21008;-92
2022/06/12 04:18:00;;;;;;;6.57;4.27;;;13.70;99.90;;;;;;5083086;28;20488;-91
2022/06/12 04:20:41;;;;;;;5.33;4.63;;;13.80;99.90;;;;;;5085021;28;20469;-93
2022/06/12 04:23:29;;;;;;;5.27;4.60;;;13.80;99.90;;;;;;5085084;28;20462;-92
2022/06/12 04:26:35;;;;;;;4.70;4.30;;;13.90;99.90;;;;;;5083910;28;20473;-93
2022/06/12 04:29:05;;;;;;;5.30;4.60;;;13.90;99.90;;;;;;5085088;28;20458;-94
2022/06/12 04:31:57;;;;;;;4.60;4.20;;;14.00;99.90;;;;;;5079691;28;20459;-93
2022/06/12 04:34:34;;;;;;;4.63;4.17;;;14.10;99.90;;;;;;5078376;28;20465;-93
2022/06/12 04:37:26;;;;;;;5.33;4.60;;;14.10;99.90;;;;;;5082074;28;20482;-93
2022/06/12 04:40:13;;;;;;;4.73;4.33;;;14.20;99.90;;;;;;5081450;28;20474;-93
2022/06/12 04:42:41;;;;;;;4.43;4.03;;;14.20;99.90;;;;;;5081748;28;20534;-93
2022/06/12 04:45:29;;;;;;;4.90;4.50;;;14.30;99.90;;;;;;5077851;28;20565;-93
2022/06/12 04:47:56;;;;;;;4.80;4.40;;;14.40;99.90;;;;;;5083095;28;20488;-91
2022/06/12 04:50:23;;;;;;;4.53;4.10;;;14.40;99.90;;;;;;5100167;28;20639;-92
2022/06/12 04:52:49;;;;;;;4.83;4.43;;;14.50;99.90;;;;;;5100642;28;20498;-92
2022/06/12 04:55:17;;;;;;;8.27;4.63;;;14.70;99.90;;;;;;5093268;28;20992;-93
2022/06/12 04:57:47;;;;;;;5.07;4.57;;;14.70;99.90;;;;;;5085024;28;20474;-92
2022/06/12 05:00:19;;;;;;;5.37;4.87;;;14.80;99.90;;;;;;5076839;28;20457;-92
2022/06/12 05:02:46;;;;;;;4.93;4.43;;;14.90;99.90;;;;;;5077772;28;20458;-92
2022/06/12 05:05:13;;;;;;;5.30;4.80;;;15.00;99.90;;;;;;5077362;28;21085;-93
2022/06/12 05:07:40;;;;;;;6.90;4.80;;;15.00;99.90;;;;;;5076885;28;20496;-92
2022/06/12 05:10:08;;;;;;;5.00;4.50;;;15.10;99.90;;;;;;5076160;28;20989;-92
2022/06/12 05:12:35;;;;;;;6.10;5.17;;;15.10;99.90;;;;;;5076788;28;20516;-92
2022/06/12 05:15:05;;;;;;;8.93;5.23;;;15.30;99.90;;;;;;5076950;28;20459;-93
2022/06/12 05:17:32;;;;;;;5.70;5.10;;;15.40;99.90;;;;;;5076675;28;20489;-93
2022/06/12 05:19:59;;;;;;;6.07;5.47;;;15.40;99.90;;;;;;5076412;28;20471;-92
2022/06/12 05:22:26;;;;;;;6.93;5.03;;;15.50;99.90;;;;;;5076690;28;20454;-93
2022/06/12 05:25:13;;;;;;;6.53;5.93;;;15.60;99.90;;;;;;5076976;28;20442;-93
2022/06/12 05:28:03;;;;;;;6.17;5.60;;;15.70;99.90;;;;;;5076767;28;20570;-93
2022/06/12 05:30:34;;;;;;;7.20;5.90;;;15.80;99.90;;;;;;5076733;28;20443;-93
2022/06/12 05:33:05;;;;;;;9.33;6.40;;;16.00;99.90;;;;;;5076933;28;20458;-94
2022/06/12 05:45:44;;;;;;;6.83;6.13;;;16.60;99.90;;;;;;5076941;28;20421;-92
2022/06/12 05:48:21;;;;;;;6.10;5.50;;;16.70;99.90;;;;;;5077100;28;20569;-91
2022/06/12 05:54:02;;;;;;;6.60;5.97;;;17.10;99.90;;;;;;5078031;28;20438;-93
2022/06/12 06:03:15;;;;;;;8.97;6.00;;;17.40;99.90;;;;;;5034608;28;20524;-93
2022/06/12 06:09:22;;;;;;;5.97;5.47;;;17.80;99.90;;;;;;5070242;22;20480;-94
2022/06/12 06:11:49;;;;;;;5.10;4.60;;;17.90;99.90;;;;;;5054540;28;20459;-93
2022/06/12 06:14:16;;;;;;;6.50;5.50;;;18.00;99.90;;;;;;5054536;28;20451;-93
2022/06/12 06:16:44;;;;;;;6.60;5.40;;;18.10;99.90;;;;;;5055689;28;20459;-94
2022/06/12 06:19:14;;;;;;;5.43;4.93;;;18.20;99.90;;;;;;5056084;28;20487;-93
2022/06/12 06:21:41;;;;;;;6.10;5.40;;;18.30;99.90;;;;;;5055623;28;20463;-94
2022/06/12 06:24:09;;;;;;;6.60;5.17;;;18.40;99.90;;;;;;5054667;28;20968;-93
2022/06/12 06:26:42;;;;;;;5.23;4.50;;;18.50;99.90;;;;;;5055013;28;20822;-93
2022/06/12 06:29:10;;;;;;;5.03;4.60;;;18.60;99.90;;;;;;5053761;28;20476;-91
2022/06/12 06:31:37;;;;;;;5.13;4.63;;;18.70;99.90;;;;;;5053930;28;20470;-92
2022/06/12 06:34:04;;;;;;;5.93;4.90;;;18.80;99.90;;;;;;5054046;28;20465;-91
2022/06/12 06:36:33;;;;;;;4.33;3.87;;;18.90;99.90;;;;;;5053751;28;20459;-92
2022/06/12 06:39:00;;;;;;;6.10;4.83;;;19.00;99.90;;;;;;5053318;28;20996;-92
2022/06/12 06:41:28;;;;;;;4.43;4.03;;;19.10;99.90;;;;;;5053535;28;20459;-92
2022/06/12 06:46:44;;;;;;;4.60;4.20;;;19.40;99.90;;;;;;4996634;28;20505;-92
2022/06/12 06:49:11;;;;;;;5.47;5.07;;;19.50;99.90;;;;;;5052575;28;20472;-93
2022/06/12 06:51:40;;;;;;;4.77;4.37;;;19.60;99.90;;;;;;5052663;28;20964;-91
2022/06/12 06:54:07;;;;;;;4.63;4.20;;;19.80;99.90;;;;;;5052474;28;20499;-92
2022/06/12 06:56:34;;;;;;;4.77;4.00;;;20.00;99.90;;;;;;5052800;28;20547;-92
2022/06/12 06:59:01;;;;;;;4.57;4.17;;;20.10;99.90;;;;;;5052575;28;20486;-92
2022/06/12 07:01:28;;;;;;;5.87;3.93;;;20.20;99.90;;;;;;5052844;28;20459;-92
2022/06/12 07:03:55;;;;;;;5.80;4.30;;;20.40;99.90;;;;;;5053353;28;20456;-92
2022/06/12 07:06:23;;;;;;;5.30;4.20;;;20.50;99.90;;;;;;5053516;28;20470;-92
2022/06/12 07:08:51;;;;;;;4.60;4.20;;;20.50;99.90;;;;;;5060106;28;21002;-92
2022/06/12 07:11:19;;;;;;;5.00;4.50;;;20.60;99.90;;;;;;5071107;28;20447;-92
2022/06/12 07:13:46;;;;;;;4.67;4.27;;;20.80;99.90;;;;;;5074456;28;20461;-92
2022/06/12 07:16:13;;;;;;;4.73;3.70;;;20.90;99.90;;;;;;5072611;28;20466;-92
2022/06/12 07:18:40;;;;;;;4.70;4.07;;;21.00;99.90;;;;;;5073161;28;20482;-92
2022/06/12 07:21:18;;;;;;;4.13;3.80;;;21.10;99.90;;;;;;5076415;28;20458;-93
2022/06/12 07:23:45;;;;;;;4.30;3.33;;;21.20;99.90;;;;;;5073278;28;20461;-92
2022/06/12 07:26:20;;;;;;;3.47;3.17;;;21.30;99.90;;;;;;5069385;28;20512;-93
2022/06/12 07:28:48;;;;;;;6.13;3.37;;;21.40;99.90;;;;;;5071988;28;20477;-94
2022/06/12 07:31:15;;;;;;;3.80;3.20;;;21.50;99.90;;;;;;5072804;28;20455;-92
2022/06/12 07:33:42;;;;;;;3.30;3.00;;;21.60;99.90;;;;;;5075515;28;20549;-96
2022/06/12 07:36:11;;;;;;;3.77;3.30;;;21.70;99.90;;;;;;5075256;28;20967;-93
2022/06/12 07:38:42;;;;;;;5.60;3.07;;;21.90;99.90;;;;;;5072726;28;20802;-93
2022/06/12 07:41:12;;;;;;;3.40;3.10;;;22.00;99.90;;;;;;5072200;28;20458;-93
2022/06/12 07:43:45;;;;;;;3.50;3.30;;;22.10;99.90;;;;;;5073663;28;20470;-93
2022/06/12 07:46:17;;;;;;;4.20;3.30;;;22.20;99.90;;;;;;5073534;28;20447;-93
2022/06/12 07:48:49;;;;;;;4.17;2.80;;;22.30;99.90;;;;;;5072442;28;20495;-93
2022/06/12 07:51:19;;;;;;;4.57;3.20;;;22.30;99.90;;;;;;5073808;28;20544;-92
2022/06/12 07:53:47;;;;;;;2.83;2.53;;;22.40;99.90;;;;;;5073157;28;20454;-93
2022/06/12 07:56:14;;;;;;;3.60;3.00;;;22.50;99.90;;;;;;5073267;28;21034;-92
2022/06/12 07:58:43;;;;;;;4.03;3.00;;;22.60;99.90;;;;;;5073908;28;20839;-93
2022/06/12 08:01:21;;;;;;;4.00;3.30;;;22.60;99.90;;;;;;5072745;28;20504;-93
2022/06/12 08:03:48;;;;;;;3.70;3.30;;;22.80;99.90;;;;;;5073171;28;20490;-93
2022/06/12 08:06:16;;;;;;;4.67;3.70;;;23.00;99.90;;;;;;5075126;28;20467;-91
2022/06/12 08:08:44;;;;;;;4.97;3.30;;;23.10;99.90;;;;;;5076779;28;20569;-90
2022/06/12 08:11:41;;;;;;;6.03;3.83;;;23.20;99.90;;;;;;5077637;28;20970;-91
2022/06/12 08:14:11;;;;;;;4.23;3.27;;;23.30;99.90;;;;;;5077674;28;20571;-91
2022/06/12 08:16:38;;;;;;;6.13;3.67;;;23.40;99.90;;;;;;5076226;28;20496;-91
2022/06/12 08:20:24;;;;;;;4.60;3.53;;;23.40;99.90;;;;;;5066025;28;20478;-91
2022/06/12 08:21:53;;;;;;;3.70;3.20;;;23.50;99.90;;;;;;5073857;28;20475;-91
2022/06/12 08:24:20;;;;;;;3.43;3.13;;;23.60;99.90;;;;;;5076008;28;21062;-91
2022/06/12 08:26:47;;;;;;;4.50;3.03;;;23.60;99.90;;;;;;5076981;28;21043;-91
2022/06/12 08:29:16;;;;;;;3.47;3.17;;;23.70;99.90;;;;;;5076160;28;20999;-92
2022/06/12 08:31:53;;;;;;;3.13;2.70;;;23.70;99.90;;;;;;5077405;28;20468;-91
2022/06/12 08:34:24;;;;;;;3.60;2.90;;;23.80;99.90;;;;;;5076787;28;20485;-90
2022/06/12 08:36:52;;;;;;;3.80;3.20;;;24.00;99.90;;;;;;5076406;28;20535;-91
2022/06/12 08:39:19;;;;;;;3.47;3.20;;;24.10;99.90;;;;;;5076661;28;20472;-90
2022/06/12 08:41:53;;;;;;;3.50;3.07;;;24.20;99.90;;;;;;5076916;28;20545;-90
2022/06/12 08:44:33;;;;;;;4.40;3.00;;;24.30;99.90;;;;;;5069206;28;20494;-91
2022/06/12 08:47:07;;;;;;;3.30;3.00;;;24.50;99.90;;;;;;5072534;28;20517;-91
2022/06/12 08:49:42;;;;;;;3.17;2.87;;;24.60;99.90;;;;;;5074525;28;21017;-92
2022/06/12 08:52:14;;;;;;;3.30;3.00;;;24.80;99.90;;;;;;5075438;28;20891;-91
2022/06/12 08:54:46;;;;;;;3.67;3.13;;;25.00;99.90;;;;;;5074152;28;20462;-92
2022/06/12 08:57:17;;;;;;;4.23;3.37;;;25.10;99.90;;;;;;5076350;28;20511;-91
2022/06/12 08:59:52;;;;;;;4.90;3.70;;;25.20;99.90;;;;;;5074295;28;20462;-94
2022/06/12 09:02:25;;;;;;;6.27;3.37;;;25.20;99.90;;;;;;5076730;28;20548;-92
2022/06/12 09:04:53;;;;;;;5.37;3.70;;;25.20;99.90;;;;;;5077659;28;20493;-92
2022/06/12 09:07:27;;;;;;;5.37;3.50;;;25.20;99.90;;;;;;5075530;28;20500;-91
2022/06/12 09:09:58;;;;;;;3.70;3.33;;;25.20;99.90;;;;;;5074513;28;20478;-91
2022/06/12 09:12:29;;;;;;;5.50;3.77;;;25.30;99.90;;;;;;5074293;28;20960;-92
2022/06/12 09:15:11;;;;;;;5.00;3.30;;;25.40;99.90;;;;;;5072817;28;20549;-92
2022/06/12 09:17:46;;;;;;;3.33;3.03;;;25.50;99.90;;;;;;5055001;28;20537;-92
2022/06/12 09:20:22;;;;;;;3.80;3.13;;;25.60;99.90;;;;;;5067757;28;20447;-92
2022/06/12 09:23:00;;;;;;;3.23;2.93;;;25.80;99.90;;;;;;5089890;28;20454;-92
2022/06/12 09:28:23;;;;;;;3.60;3.30;;;26.30;99.90;;;;;;5047840;28;20479;-91
2022/06/12 09:38:20;;;;;;;3.83;3.43;;;27.30;99.90;;;;;;4980923;23;20499;-70
2022/06/12 09:41:02;;;;;;;3.57;3.27;;;27.70;99.90;;;;;;5050480;28;20826;-69
2022/06/12 09:43:38;;;;;;;4.97;3.30;;;27.80;99.90;;;;;;5050779;28;20455;-69
2022/06/12 09:46:20;;;;;;;4.40;4.00;;;27.80;99.90;;;;;;5051084;28;20478;-70
2022/06/12 09:48:56;;;;;;;4.60;4.30;;;27.90;99.90;;;;;;5049836;28;20571;-70
2022/06/12 09:51:35;;;;;;;3.93;3.63;;;28.00;99.90;;;;;;5051962;28;20487;-70
2022/06/12 09:54:25;;;;;;;3.60;3.30;;;28.00;99.90;;;;;;5051730;28;20465;-70
2022/06/12 09:56:59;;;;;;;4.38;3.70;;;28.30;99.90;;;;;;5050162;28;20471;-70
2022/06/12 09:59:31;;;;;;;4.97;3.80;;;28.40;99.90;;;;;;5050768;28;20209;-72
2022/06/12 10:02:03;;;;;;;4.37;3.37;;;28.40;99.60;;;;;;5051768;28;20462;-73
2022/06/12 10:04:39;;;;;;;6.60;3.87;;;28.00;99.90;;;;;;5050846;28;20467;-71
2022/06/12 10:07:12;;;;;;;5.00;4.20;;;28.00;99.90;;;;;;5051378;28;20484;-71
2022/06/12 10:09:46;;;;;;;5.40;3.70;;;28.10;99.90;;;;;;5050839;28;20495;-71
2022/06/12 10:12:17;;;;;;;3.90;3.60;;;28.10;99.90;;;;;;5051327;28;20470;-71
2022/06/12 10:14:47;;;;;;;4.90;3.77;;;28.00;99.80;;;;;;5051041;28;20813;-70
2022/06/12 10:17:19;;;;;;;3.70;3.40;;;28.00;99.90;;;;;;5050844;28;20506;-71
2022/06/12 10:19:51;;;;;;;4.00;3.37;;;28.00;99.80;;;;;;5050651;28;20478;-70
2022/06/12 10:22:22;;;;;;;4.03;3.63;;;28.10;99.90;;;;;;5051462;28;20460;-69
2022/06/12 10:24:50;;;;;;;4.67;3.50;;;28.20;99.40;;;;;;5051166;28;20463;-71
2022/06/12 10:27:23;;;;;;;5.53;3.50;;;28.30;99.90;;;;;;5051108;28;20477;-70
2022/06/12 10:29:53;;;;;;;4.20;3.33;;;28.50;99.90;;;;;;5051740;28;21354;-73
2022/06/12 10:32:22;;;;;;;3.40;3.10;;;28.70;99.70;;;;;;5051265;28;20465;-73
2022/06/12 10:34:49;;;;;;;6.63;3.43;;;28.70;98.90;;;;;;5050829;28;20859;-76
2022/06/12 10:37:19;;;;;;;5.03;3.40;;;28.80;99.10;;;;;;5050676;28;20945;-73
2022/06/12 10:39:59;;;;;;;4.00;3.63;;;28.80;99.50;;;;;;5050634;28;20456;-74
2022/06/12 10:42:46;;;;;;;2.97;2.77;;;29.00;99.60;;;;;;5050923;28;20468;-72
2022/06/12 10:45:22;;;;;;;8.17;4.33;;;29.10;97.70;;;;;;5051086;28;20462;-75
2022/06/12 10:47:50;;;;;;;3.80;3.50;;;29.20;99.10;;;;;;5050578;28;20485;-70
2022/06/12 10:50:22;;;;;;;4.00;3.33;;;29.20;96.80;;;;;;5050380;28;20531;-71
2022/06/12 10:52:56;;;;;;;3.73;3.40;;;28.80;95.00;;;;;;5050457;28;20560;-71
2022/06/12 10:55:42;;;;;;;4.30;3.40;;;28.50;96.80;;;;;;5050737;28;20466;-70
2022/06/12 10:58:39;;;;;;;4.73;3.43;;;28.70;99.30;;;;;;5050254;28;20468;-71
2022/06/12 11:01:19;;;;;;;3.55;3.00;;;28.90;97.80;;;;;;5050017;28;21164;-70
2022/06/12 11:04:00;;;;;;;4.07;3.30;;;29.00;94.70;;;;;;5052356;28;20721;-70
2022/06/12 11:06:33;;;;;;;3.53;3.23;;;28.90;95.70;;;;;;5043483;28;20481;-72
2022/06/12 11:09:10;;;;;;;3.50;3.20;;;28.80;98.60;;;;;;5047943;28;20464;-70
2022/06/12 11:11:50;;;;;;;4.53;3.50;;;28.70;97.80;;;;;;5047689;28;20870;-73
2022/06/12 11:14:33;;;;;;;5.90;2.97;;;28.70;97.10;;;;;;5050559;28;20464;-73
2022/06/12 11:17:14;;;;;;;3.70;3.37;;;28.70;97.90;;;;;;5048824;28;20500;-71
2022/06/12 11:19:51;;;;;;;3.23;2.87;;;29.00;96.10;;;;;;5048238;28;20466;-72
2022/06/12 11:22:33;;;;;;;3.57;3.27;;;29.00;96.20;;;;;;5050348;28;20469;-70
2022/06/12 11:25:14;;;;;;;3.70;3.40;;;28.90;97.20;;;;;;5050314;28;21001;-70
2022/06/12 11:27:55;;;;;;;3.97;3.23;;;28.80;98.10;;;;;;5050205;28;20485;-72
2022/06/12 11:30:39;;;;;;;3.43;3.13;;;28.70;97.30;;;;;;5050076;28;20483;-70
2022/06/12 11:33:34;;;;;;;3.80;3.40;;;28.60;97.30;;;;;;5050478;28;20461;-71
2022/06/12 11:36:12;;;;;;;3.30;3.10;;;28.60;97.50;;;;;;5049997;28;20471;-74
2022/06/12 11:39:04;;;;;;;3.70;3.40;;;29.10;97.80;;;;;;5049504;28;21165;-70
2022/06/12 11:41:41;;;;;;;4.90;3.73;;;29.60;97.70;;;;;;5051561;28;20517;-68
2022/06/12 11:44:20;;;;;;;3.63;3.20;;;29.80;94.60;;;;;;5053933;28;20468;-69
2022/06/12 11:46:57;;;;;;;3.83;3.27;;;29.80;95.60;;;;;;5053389;28;20994;-68
2022/06/12 11:49:36;;;;;;;3.37;3.03;;;29.90;96.40;;;;;;5053829;28;20655;-69
2022/06/12 11:52:15;;;;;;;3.27;2.97;;;30.10;96.30;;;;;;5053422;28;20577;-69
2022/06/12 11:54:54;;;;;;;4.20;3.10;;;30.20;95.70;;;;;;5053256;28;20459;-70
2022/06/12 11:57:23;;;;;;;3.20;2.90;;;30.20;94.70;;;;;;5054044;28;20483;-68
2022/06/12 12:00:02;;;;;;;3.50;3.20;;;30.20;93.50;;;;;;5052102;28;20463;-68
2022/06/12 12:02:45;;;;;;;3.80;3.20;;;30.30;95.50;;;;;;5053653;28;20461;-70
2022/06/12 12:05:34;;;;;;;3.30;3.00;;;30.50;96.10;;;;;;5054343;28;21156;-70
2022/06/12 12:08:16;;;;;;;3.33;2.90;;;30.60;96.30;;;;;;5083903;22;20472;-92
2022/06/12 12:10:48;;;;;;;3.47;3.27;;;30.80;95.90;;;;;;5111520;27;20610;-93
2022/06/12 12:13:18;;;;;;;4.20;3.17;;;31.00;96.80;;;;;;5121055;27;20502;-93
2022/06/12 12:15:49;;;;;;;3.10;2.80;;;31.30;95.70;;;;;;5121030;27;20480;-92
2022/06/12 12:18:32;;;;;;;3.30;3.07;;;31.50;94.30;;;;;;5120656;27;20527;-94
2022/06/12 12:21:01;;;;;;;3.67;3.07;;;31.60;96.00;;;;;;5120906;27;20445;-92
2022/06/12 12:23:33;;;;;;;2.83;2.63;;;31.80;94.90;;;;;;5120705;27;20478;-95
2022/06/12 12:26:04;;;;;;;3.50;3.20;;;31.50;93.00;;;;;;5121159;27;20464;-94
2022/06/12 12:28:36;;;;;;;6.00;3.30;;;31.30;95.30;;;;;;5120410;27;20540;-93
2022/06/12 12:31:06;;;;;;;4.27;3.10;;;30.90;95.50;;;;;;5120598;27;20469;-93
2022/06/12 12:33:35;;;;;;;3.60;3.30;;;30.50;95.30;;;;;;5120376;27;20473;-92
2022/06/12 12:41:49;;;;;;;2.70;2.50;;;30.70;97.70;;;;;;5117587;28;20456;-93
2022/06/12 12:44:29;;;;;;;3.13;2.83;;;31.00;94.00;;;;;;5119629;28;20438;-94
2022/06/12 12:46:56;;;;;;;4.27;3.23;;;31.10;93.10;;;;;;5118681;28;20437;-92
2022/06/12 12:49:39;;;;;;;4.47;2.83;;;31.00;93.30;;;;;;5117973;28;20460;-94
2022/06/12 12:52:11;;;;;;;3.13;2.83;;;30.70;92.90;;;;;;5116693;28;20474;-95
2022/06/12 12:54:50;;;;;;;3.00;2.47;;;30.60;96.60;;;;;;5119523;28;20442;-94
2022/06/12 12:57:20;;;;;;;3.00;2.70;;;30.70;94.10;;;;;;5119817;28;20460;-93
2022/06/12 12:59:50;;;;;;;4.57;3.33;;;31.00;94.80;;;;;;5118738;28;20950;-94
2022/06/12 13:02:24;;;;;;;4.10;2.73;;;31.40;95.00;;;;;;5119472;28;20468;-93
2022/06/12 13:04:56;;;;;;;5.53;2.90;;;31.90;93.70;;;;;;5120069;28;20469;-93
2022/06/12 13:07:55;;;;;;;3.30;3.00;;;32.00;92.30;;;;;;5119913;28;20458;-92
2022/06/12 13:11:04;;;;;;;3.20;2.90;;;31.90;92.70;;;;;;5115410;28;20442;-92
2022/06/12 13:13:50;;;;;;;2.90;2.60;;;31.70;92.80;;;;;;5114514;28;20516;-93
2022/06/12 13:16:26;;;;;;;3.33;3.03;;;31.60;90.20;;;;;;5119384;28;20433;-94
2022/06/12 13:19:16;;;;;;;3.40;2.70;;;31.40;90.50;;;;;;5117468;28;20467;-95
2022/06/12 13:21:55;;;;;;;4.40;2.57;;;31.20;93.40;;;;;;5097467;28;20461;-92
2022/06/12 13:24:29;;;;;;;3.17;2.80;;;31.20;93.40;;;;;;5102962;28;20456;-93
2022/06/12 13:26:57;;;;;;;3.10;2.80;;;31.50;93.90;;;;;;5112571;22;20584;-73
2022/06/12 13:29:26;;;;;;;3.30;2.97;;;31.70;92.80;;;;;;5072292;28;20477;-74
2022/06/12 13:31:55;;;;;;;2.77;2.57;;;31.70;92.90;;;;;;5073358;28;20493;-74
2022/06/12 13:34:22;;;;;;;3.43;2.90;;;31.70;92.80;;;;;;5073474;28;20465;-74
2022/06/12 13:36:51;;;;;;;4.27;2.97;;;31.40;93.60;;;;;;5072444;28;20504;-71
2022/06/12 13:39:27;;;;;;;3.67;3.10;;;31.10;92.40;;;;;;5072300;28;20455;-73
2022/06/12 13:41:58;;;;;;;3.73;2.70;;;30.90;93.70;;;;;;5074095;28;20456;-73
2022/06/12 13:44:29;;;;;;;4.27;3.00;;;30.80;93.20;;;;;;5072365;28;20550;-73
2022/06/12 13:46:58;;;;;;;3.10;2.80;;;30.50;91.60;;;;;;5073345;28;20575;-74
2022/06/12 13:49:37;;;;;;;4.03;3.20;;;30.20;93.70;;;;;;5071815;28;20462;-73
2022/06/12 13:52:22;;;;;;;3.00;2.80;;;30.20;95.10;;;;;;5072222;28;20911;-73
2022/06/12 13:54:49;;;;;;;5.73;3.43;;;30.20;93.80;;;;;;5071862;28;20459;-73
2022/06/12 13:57:25;;;;;;;4.93;2.90;;;30.00;92.70;;;;;;5071485;28;20490;-73
2022/06/12 13:59:52;;;;;;;4.13;3.00;;;29.60;92.70;;;;;;5071138;28;20457;-73
2022/06/12 14:02:22;;;;;;;3.00;2.70;;;29.40;93.80;;;;;;5071688;28;20464;-73
2022/06/12 14:04:59;;;;;;;2.93;2.73;;;29.10;94.90;;;;;;5069951;28;20468;-73
2022/06/12 14:07:33;;;;;;;4.03;3.00;;;28.80;95.00;;;;;;5071317;28;20477;-73
2022/06/12 14:10:02;;;;;;;3.70;3.17;;;28.80;96.30;;;;;;5070966;28;20460;-73
2022/06/12 14:12:34;;;;;;;2.70;2.50;;;28.90;94.80;;;;;;5071133;28;20809;-73
2022/06/12 14:15:01;;;;;;;3.80;2.60;;;29.20;94.60;;;;;;5071638;28;20458;-74
2022/06/12 14:17:30;;;;;;;3.27;2.97;;;29.60;96.10;;;;;;5072200;28;20487;-74
2022/06/12 14:19:59;;;;;;;3.63;3.23;;;29.70;96.00;;;;;;5073006;28;20529;-73
2022/06/12 14:22:31;;;;;;;3.27;2.80;;;29.90;95.20;;;;;;5073459;28;20455;-74